Weather observations for the past three days for
L O Simenstad Municipal Airport
Imperial (Metric)
Date Time (cdt) Wind (mph) Vis. (mi.) Weather Sky Cond. Temperature (ºF) Relative Humidity Wind Chill (°F) Heat Index (°F) Pressure Precipitation (in)
Air Dwpt 6 hour altimeter (in) sea level (mb) 1 hr 3 hr 6 hr
Max. Min.
03 20:15 SW 6 10.00 Fair CLR 62.8 22.3 21% 29.66 0.0
03 19:55 SW 5 10.00 Fair CLR 64.6 22.6 20% 29.67 0.0
03 19:35 SW 7 10.00 Fair CLR 66.7 21.2 18% 29.67 0.0
03 19:15 W 6 10.00 Fair CLR 67.3 21.4 17% 29.67 0.0
03 18:55 W 8 10.00 Fair CLR 65.5 21.4 70.5 65.5 18% 29.67 0.0
03 18:35 W 5 10.00 Fair CLR 69.4 18.1 14% 29.67 0.0
03 18:15 W 9 G 18 10.00 Fair CLR 69.3 14 12% 29.68 0.0
03 17:55 W 9 10.00 Fair CLR 69.6 14.7 12% 29.69 0.0
03 17:35 W 12 G 18 10.00 Fair CLR 69.8 15.1 12% 29.69 0.0
03 17:15 W 10 G 16 10.00 Fair CLR 70 13.3 11% 29.69 0.0
03 16:55 W 6 10.00 Fair CLR 70.5 14.2 11% 29.69 0.0
03 16:35 W 9 10.00 Fair CLR 69.8 12.9 11% 29.7 0.0
03 16:15 NW 13 G 20 10.00 Fair CLR 69.8 12.9 11% 29.71 0.0
03 15:55 W 15 G 20 10.00 Fair CLR 69.3 10 10% 29.72 0.0
03 15:35 W 14 G 20 10.00 Fair CLR 68.9 8.6 9% 29.72 0.0
03 15:15 NW 12 G 20 10.00 Fair CLR 68.7 6.4 8% 29.72 0.0
03 14:55 W 14 G 24 10.00 Fair CLR 69.1 9 9% 29.72 0.0
03 14:35 NW 16 G 23 10.00 Fair CLR 68.9 9.9 10% 29.72 0.0
03 14:15 NW 20 G 25 10.00 Fair CLR 68.7 12.4 11% 29.73 0.0
03 13:55 NW 14 G 22 10.00 Fair CLR 68.2 10.6 10% 29.73 0.0
03 13:35 W 18 G 23 10.00 Fair CLR 68.4 11.8 11% 29.73 0.0
03 13:15 NW 14 G 21 10.00 Fair CLR 68 19.8 16% 29.74 0.0
03 12:55 W 18 G 23 10.00 Fair CLR 67.6 29.3 68.2 45.7 24% 29.74 0.0
03 12:35 NW 13 G 18 10.00 Fair CLR 67.6 31.3 26% 29.74 0.0
03 12:15 NW 9 G 18 10.00 Fair CLR 67.3 31.5 26% 29.74 0.0
03 11:55 NW 9 G 16 10.00 Fair CLR 67.1 31.6 27% 29.74 0.0
03 11:35 NW 12 G 21 10.00 Fair CLR 66.2 31.8 28% 29.74 0.0
03 11:15 NW 14 G 18 10.00 Fair CLR 65.7 31.5 28% 29.74 0.0
03 10:55 NW 13 G 18 10.00 Fair CLR 65.3 31.5 28% 29.74 0.0
03 10:35 N 9 10.00 Fair CLR 64.9 32.5 30% 29.74 0.0
03 10:15 NW 10 10.00 Fair CLR 64 32.9 31% 29.74 0.0
03 09:55 NW 8 10.00 Fair CLR 62.2 33.1 34% 29.74 0.0
03 09:35 NW 8 10.00 Fair CLR 61.5 33.8 35% 29.73 0.0
03 09:15 NW 8 10.00 Fair CLR 60.3 33.1 36% 29.73 0.0
03 08:55 NW 7 10.00 Fair CLR 59 32.5 37% 29.73 0.0
03 08:35 W 3 10.00 Fair CLR 57.2 33.1 40% 29.73 0.0
03 08:15 W 3 10.00 Fair CLR 55.6 34.5 45% 29.73 0.0
03 07:55 Calm 10.00 Fair CLR 54.3 35.8 50% 29.72 0.0
03 07:35 Calm 10.00 Fair CLR 52 36.3 55% 29.72 0.0
03 07:15 Calm 10.00 Fair CLR 47.3 38.3 71% 29.71 0.0
03 06:55 Calm 10.00 Fair CLR 45.5 36.5 54.7 40.6 71% 29.71 0.0
03 06:35 Calm 10.00 Fair CLR 42.3 35.2 76% 29.71 0.0
03 06:15 SE 5 10.00 Fair CLR 41.7 34.7 76% 39 29.7 0.0
03 05:55 SE 3 10.00 Fair CLR 42.3 33.1 70% 29.7 0.0
03 05:35 SE 6 10.00 Fair CLR 42.6 34.2 72% 40 29.71 0.0
03 05:15 SE 8 10.00 Fair CLR 45.3 34.9 67% 42 29.71 0.0
03 04:55 E 6 10.00 Fair CLR 45.1 34.3 66% 43 29.71 0.0
03 04:35 E 5 10.00 Fair CLR 46.6 33.6 61% 45 29.72 0.0
03 04:15 E 5 10.00 Partly Cloudy SCT095 SCT110 49.8 34.2 55% 49 29.71 0.0
03 03:55 E 3 10.00 Mostly Cloudy SCT095 BKN110 52.7 33.1 47% 29.72 0.0
03 03:35 E 3 10.00 Mostly Cloudy BKN110 53.2 33.1 46% 29.72 0.0
03 03:15 Calm 10.00 Overcast OVC100 52.9 33.1 47% 29.72 0.0
03 02:55 SE 5 10.00 Overcast SCT090 OVC110 52.9 32.9 47% 29.72 0.0
03 02:35 S 7 10.00 Overcast OVC100 53.1 33.4 47% 29.73 0.0
03 02:15 S 8 10.00 Overcast OVC100 53.1 33.4 47% 29.74 0.0
03 01:55 S 8 10.00 Partly Cloudy SCT100 52.7 33.3 48% 29.75 0.0
03 01:35 S 9 10.00 Fair CLR 53.6 32.7 45% 29.76 0.0
03 01:15 SE 9 10.00 Fair CLR 53.8 32.9 45% 29.77 0.0
03 00:55 S 9 10.00 Partly Cloudy SCT100 54.7 33.1 63.1 54 44% 29.78 0.0
03 00:35 S 6 10.00 Mostly Cloudy BKN090 55 32.5 43% 29.78 0.0
03 00:15 SE 6 10.00 Overcast OVC090 56.7 32.4 40% 29.79 0.0
02 23:55 SE 5 10.00 Overcast OVC090 56.5 32.5 40% 29.8 0.0
02 23:35 SE 6 10.00 Overcast OVC100 57.4 32.7 39% 29.8 0.0
02 23:15 S 7 10.00 Overcast OVC100 59.2 31.1 35% 29.81 0.0
02 22:55 S 6 10.00 Overcast SCT070 OVC090 57.9 32.4 38% 29.82 0.0
02 22:35 S 3 10.00 Overcast SCT070 BKN090 OVC110 59.2 30.2 33% 29.83 0.0
02 22:15 SW 6 10.00 Overcast SCT070 BKN080 OVC100 59.4 30.4 33% 29.84 0.0
02 21:55 SW 9 10.00 Overcast OVC090 61 28.2 29% 29.85 0.0
02 21:35 SW 16 G 20 10.00 Overcast OVC090 61.7 27.7 28% 29.85 0.0
02 21:15 SW 10 10.00 Overcast OVC090 61 27.5 28% 29.85 0.0
02 20:55 SW 9 10.00 Overcast OVC090 61.2 28.2 29% 29.85 0.0
02 20:35 SW 5 10.00 Overcast OVC090 60.8 28.9 30% 29.85 0.0
02 20:15 W 8 10.00 Overcast OVC090 61 29.8 31% 29.85 0.0
02 19:55 SW 7 10.00 Overcast SCT070 OVC090 61.7 28.8 29% 29.85 0.0
02 19:35 SW 16 G 21 10.00 Overcast SCT070 OVC080 62.4 28 27% 29.87 0.0
02 19:15 SW 6 10.00 Overcast OVC080 62.6 28.8 28% 29.87 0.0
02 18:55 SW 6 10.00 Overcast BKN080 OVC090 63.1 28.2 65.3 59 27% 29.87 0.0
02 18:35 SW 13 G 18 10.00 Overcast OVC080 63.5 26.6 25% 29.88 0.0
02 18:15 SW 16 G 22 10.00 Overcast BKN090 OVC100 63.5 27 25% 29.88 0.0
02 17:55 SW 9 10.00 Mostly Cloudy BKN100 63.5 25.5 24% 29.88 0.0
02 17:35 SW 9 10.00 Partly Cloudy SCT100 63.3 24.6 23% 29.89 0.0
02 17:15 SW 9 10.00 Fair CLR 64 25 23% 29.9 0.0
02 16:55 SW 12 G 16 10.00 Fair CLR 63.9 23.7 22% 29.91 0.0
02 16:35 SW 12 G 28 10.00 Partly Cloudy SCT120 64.4 24.3 22% 29.92 0.0
02 16:15 W 10 10.00 Partly Cloudy SCT120 65.3 23.5 20% 29.93 0.0
02 15:55 W 14 G 21 10.00 Partly Cloudy SCT120 64.2 23.5 21% 29.94 0.0
02 15:35 SW 15 G 22 10.00 Fair CLR 63.9 23.7 22% 29.95 0.0
02 15:15 SW 15 G 21 10.00 Fair CLR 63.5 23.4 22% 29.96 0.0
02 14:55 SW 13 G 17 10.00 Fair CLR 61.7 22.5 22% 29.97 0.0
02 14:35 S 9 10.00 Partly Cloudy SCT110 63 22.8 21% 29.98 0.0
02 14:15 W 13 G 22 10.00 Partly Cloudy SCT100 61.5 21.7 22% 29.99 0.0
02 13:55 SW 17 G 22 10.00 Fair CLR 61.9 22.8 22% 30 0.0
02 13:35 W 9 10.00 Fair CLR 61 22.1 22% 30.01 0.0
02 13:15 W 8 G 17 10.00 Fair CLR 60.1 21.7 23% 30.02 0.0
02 12:55 W 13 G 21 10.00 Fair CLR 59.4 21.9 59.4 31.8 24% 30.03 0.0
02 12:35 W 10 10.00 Fair CLR 58.5 20.8 23% 30.04 0.0
02 12:15 NW 6 G 18 10.00 Partly Cloudy SCT085 57.9 21 24% 30.04 0.0
02 11:55 S 9 G 20 10.00 Partly Cloudy SCT085 57.4 21 24% 30.05 0.0
02 11:35 SW 10 G 16 10.00 Fair CLR 57.2 20.1 24% 30.06 0.0
02 11:15 SW 10 G 17 10.00 Fair CLR 56.5 20.3 24% 30.07 0.0
02 10:55 W 7 10.00 Fair CLR 55 20.5 26% 30.07 0.0
02 10:35 W 7 G 16 10.00 Fair CLR 55 21.7 27% 30.08 0.0
02 10:15 W 9 10.00 Fair CLR 54.7 22.5 29% 30.09 0.0
02 09:55 W 9 10.00 Fair CLR 53.6 22.8 30% 30.09 0.0
02 09:35 SW 5 10.00 Fair CLR 51.8 25.3 36% 30.09 0.0
02 09:15 W 5 10.00 Fair CLR 49.8 26.8 41% 49 30.1 0.0
02 08:55 Calm 10.00 Fair CLR 46.6 30.7 54% 30.1 0.0
02 08:35 Calm 10.00 Fair CLR 43.9 31.1 61% 30.11 0.0
02 08:15 Calm 10.00 Fair CLR 41.5 31.8 68% 30.11 0.0
02 07:55 Calm 10.00 Fair CLR 39.2 32 75% 30.11 0.0
02 07:35 Calm 10.00 Fair CLR 36.3 31.6 83% 30.11 0.0
02 07:15 Calm 10.00 Fair CLR 32.9 30.4 90% 30.11 0.0
02 06:55 Calm 10.00 Fair CLR 31.5 28.8 35.2 28.6 90% 30.1 0.0
02 06:35 Calm 10.00 Fair CLR 30.2 27.3 89% 30.1 0.0
02 06:15 E 3 10.00 Fair CLR 28.6 25.5 88% 30.1 0.0
02 05:55 Calm 10.00 Fair CLR 29.7 25.7 85% 30.1 0.0
02 05:35 Calm 10.00 Fair CLR 29.7 28 94% 30.1 0.0
02 05:15 Calm 10.00 Fair CLR 29.8 25.7 85% 30.1 0.0
02 04:55 Calm 10.00 Fair CLR 30.4 26.6 86% 30.1 0.0
02 04:35 Calm 10.00 Fair CLR 30.6 27.7 89% 30.09 0.0
02 04:15 Calm 10.00 Fair CLR 30 28 92% 30.09 0.0
02 03:55 Calm 10.00 Fair CLR 30.6 28.4 92% 30.09 0.0
02 03:30 Calm 10.00 Fair CLR 31.8 28.4 87% 30.09 0.0
02 03:15 Calm 10.00 Fair CLR 32 28.4 87% 30.1 0.0
02 02:55 Calm 10.00 Fair CLR 32 27.7 84% 30.1 0.0
02 02:15 Calm 10.00 Fair CLR 32.5 27.5 82% 30.1 0.0
02 01:55 Calm 10.00 Fair CLR 32.7 29.7 89% 30.11 0.0
02 01:35 Calm 10.00 Fair CLR 33.8 28.8 82% 30.11 0.0
02 01:15 Calm 10.00 Fair CLR 33.4 29.1 84% 30.11 0.0
02 00:55 Calm 10.00 Fair CLR 35.2 30 51.6 35.1 81% 30.11 0.0
02 00:35 Calm 10.00 Fair CLR 35.6 30.6 82% 30.11 0.0
02 00:15 Calm 10.00 Fair CLR 36 28.6 75% 30.11 0.0
01 23:55 Calm 10.00 Fair CLR 37.6 29.1 72% 30.11 0.0
01 23:35 Calm 10.00 Fair CLR 38.5 29.7 71% 30.1 0.0
01 23:15 Calm 10.00 Partly Cloudy SCT090 39.2 28.6 66% 30.1 0.0
01 22:55 Calm 10.00 Partly Cloudy SCT090 40.5 30.9 69% 30.11 0.0
01 22:35 Calm 10.00 Mostly Cloudy BKN090 42.1 31.6 67% 30.11 0.0
01 22:15 Calm 10.00 Overcast OVC090 42.8 29.5 59% 30.11 0.0
01 21:55 S 3 10.00 Overcast OVC100 42.3 29.7 61% 30.11 0.0
01 21:35 Calm 10.00 Overcast OVC100 43.2 28.2 56% 30.1 0.0
01 21:15 Calm 10.00 Overcast OVC100 43.5 27.5 53% 30.1 0.0
01 20:55 Calm 10.00 Overcast OVC100 43.5 27.7 54% 30.1 0.0
01 20:35 S 3 10.00 Overcast OVC100 45.5 24.1 43% 30.09 0.0
01 20:15 Calm 10.00 Mostly Cloudy BKN100 49.3 18.5 29% 30.09 0.0
01 19:55 Calm 10.00 Overcast OVC100 49.8 18.7 29% 30.09 0.0
01 19:35 Calm 10.00 Overcast OVC090 50.9 15.6 24% 30.09 0.0
01 19:15 Calm 10.00 Mostly Cloudy BKN090 51.6 12.7 21% 30.09 0.0
01 18:55 W 3 10.00 Mostly Cloudy BKN090 51.4 14.9 55.4 48.4 23% 30.09 0.0
01 18:35 Calm 10.00 Mostly Cloudy BKN090 51.8 13.8 22% 30.09 0.0
01 18:15 Calm 10.00 Overcast OVC090 53.1 14.2 21% 30.09 0.0
01 17:55 Calm 10.00 Overcast OVC090 51.6 15.1 23% 30.09 0.0
01 17:35 W 5 10.00 Overcast SCT080 OVC090 52 15.3 23% 30.09 0.0
01 17:15 NW 7 10.00 Overcast SCT075 OVC085 53.6 14.2 21% 30.09 0.0
01 16:55 Calm 10.00 Overcast OVC085 52.2 13.6 21% 30.09 0.0
01 16:35 N 5 10.00 Overcast SCT080 OVC085 51.6 13.5 22% 30.09 0.0
01 16:15 Calm 10.00 Overcast OVC070 51.1 14.2 23% 30.1 0.0
01 15:55 W 12 10.00 Overcast OVC070 54.1 15.6 22% 30.09 0.0
01 15:35 N 6 10.00 Overcast OVC070 52.9 13.6 21% 30.1 0.0
01 15:15 W 9 G 16 10.00 Mostly Cloudy BKN070 53.4 16.7 23% 30.1 0.0
01 14:55 NE 6 10.00 Partly Cloudy SCT070 51.8 14.7 23% 30.1 0.0
01 14:35 NE 5 G 17 10.00 Partly Cloudy SCT065 52.3 17.4 25% 30.11 0.0
01 14:15 NW 6 10.00 Mostly Cloudy BKN065 52.2 17.4 25% 30.11 0.0
01 13:55 Calm 10.00 Mostly Cloudy BKN065 49.3 16 26% 30.11 0.0
01 13:35 NW 7 10.00 Partly Cloudy SCT065 50.7 16.2 25% 30.11 0.0
01 13:15 N 9 10.00 Partly Cloudy SCT065 50.7 16.5 26% 30.11 0.0
01 12:55 NW 6 10.00 Mostly Cloudy BKN065 48.6 16.7 50.5 39.2 28% 47 30.12 0.0
01 12:35 W 9 G 17 10.00 Partly Cloudy SCT065 49.5 16.5 27% 46 30.12 0.0
01 12:15 N 9 G 17 10.00 Partly Cloudy SCT060 48.4 15.1 26% 45 30.12 0.0
01 11:55 NE 7 10.00 Partly Cloudy SCT060 48.2 16 28% 46 30.13 0.0
01 11:35 N 10 G 16 10.00 Fair CLR 47.5 15.6 28% 43 30.13 0.0
01 11:15 N 9 10.00 Fair CLR 47.7 17.6 30% 44 30.13 0.0
01 10:55 N 13 G 23 10.00 Partly Cloudy SCT055 46.6 16 29% 41 30.13 0.0
01 10:35 N 13 G 21 10.00 Partly Cloudy SCT055 46.2 16.3 30% 41 30.13 0.0
01 10:15 N 9 G 17 10.00 Partly Cloudy SCT055 45.7 17.2 32% 42 30.13 0.0
01 09:55 NE 8 10.00 Partly Cloudy SCT055 45 18.1 34% 41 30.13 0.0
01 09:35 N 6 10.00 Fair CLR 44.2 17.8 35% 41 30.13 0.0
01 09:15 N 9 10.00 Fair CLR 43.3 18.7 37% 39 30.13 0.0
01 08:55 N 7 10.00 Fair CLR 42.8 20.8 42% 39 30.13 0.0
01 08:35 NE 9 10.00 Fair CLR 41.2 19.6 42% 36 30.13 0.0
01 08:15 N 7 10.00 Fair CLR 40.5 20.1 44% 36 30.13 0.0
01 07:50 N 7 10.00 Fair CLR 39.7 19.8 45% 35 30.13 0.0
01 07:35 N 5 10.00 Partly Cloudy SCT075 39.6 20.5 46% 37 30.13 0.0
01 07:15 N 7 10.00 Mostly Cloudy BKN075 39.6 23.2 52% 35 30.12 0.0
01 06:55 N 6 10.00 Overcast OVC075 39.2 25.7 41 37.6 58% 36 30.11 0.0
01 06:35 N 6 10.00 Overcast OVC075 38.7 25.5 59% 35 30.11 0.0
01 06:15 N 3 10.00 Overcast OVC075 37.9 26.4 63% 30.1 0.0
01 05:55 N 3 10.00 Overcast OVC075 37.8 26.2 63% 30.1 0.0
01 05:35 N 3 10.00 Overcast OVC075 37.9 26.2 63% 30.09 0.0
01 05:15 N 3 10.00 Overcast OVC075 38.3 27.1 64% 30.09 0.0
01 04:55 Calm 10.00 Overcast OVC075 38.1 27.1 65% 30.1 0.0
01 04:35 Calm 10.00 Overcast OVC075 37.6 30.2 75% 30.09 0.0
01 04:15 Calm 10.00 Overcast OVC075 39.2 24.4 56% 30.09 0.0
01 03:55 Calm 10.00 Overcast OVC075 39.2 26.4 60% 30.09 0.0
01 03:35 NE 3 10.00 Overcast OVC075 39.2 26.8 61% 30.09 0.0
01 03:15 Calm 10.00 Overcast OVC075 39.2 25.3 58% 30.08 0.0
01 02:55 Calm 10.00 Overcast OVC075 39.4 24.8 56% 30.09 0.0
01 02:35 Calm 10.00 Overcast SCT065 OVC075 39.7 25.3 56% 30.09 0.0
01 01:55 NE 3 10.00 Overcast OVC075 40.5 23.4 51% 30.09 0.0
01 01:35 Calm 10.00 Overcast OVC075 40.5 22.8 49% 30.08 0.0
01 01:15 E 6 10.00 Overcast OVC075 41 21.9 47% 38 30.08 0.0
01 00:55 NE 5 10.00 Overcast OVC075 41 21.9 50.9 41 47% 38 30.08 0.0
01 00:35 NE 6 10.00 Overcast OVC075 41.2 22.6 48% 38 30.07 0.0
30 23:55 NE 5 10.00 Overcast OVC075 41.9 23 47% 40 30.07 0.0
30 23:35 NE 8 10.00 Overcast OVC075 42.1 23.7 48% 38 30.06 0.0
30 23:15 NE 7 10.00 Overcast OVC075 42.8 22.6 45% 39 30.06 0.0
30 22:55 NE 7 10.00 Overcast SCT070 OVC075 43.2 23.2 45% 40 30.06 0.0
30 22:35 NE 7 10.00 Overcast OVC070 43.9 22.1 42% 40 30.06 0.0
30 22:15 E 5 10.00 Overcast OVC070 44.2 22.6 42% 42 30.06 0.0
30 21:55 NE 7 10.00 Overcast OVC070 44.2 23.5 44% 41 30.05 0.0
30 21:35 Calm 10.00 Overcast OVC070 43 29.8 60% 30.05 0.0
30 20:55 Calm 10.00 Overcast OVC070 45.7 20.5 37% 30.03 0.0
30 20:35 Calm 10.00 Overcast OVC070 46 19.9 35% 30.03 0.0
Date Time (cdt) Wind (mph) Vis. (mi.) Weather Sky Cond. Air Dwpt Max. Min. Relative Humidity Wind Chill (°F) Heat Index (°F) altimeter (in) sea level (mb) 1 hr 3 hr 6 hr
6 hour
Temperature (ºF) Pressure Precipitation (in)